METAR AND TAF INFORMATION
METAR FOR YABA
ADDS - METARS form results

(1853 UTC 15 July 2020)
Data provider http://aviationweather.gov/metar/data/
 
METAR text: YABA 151800Z AUTO 36016KT 9999 // NCD 12/10 Q1010
Conditions at: YABA (ALBANY AIRPORT , AU) observed 1800 UTC 15 July 2020
Temperature: 12.0°C (54°F)
Dewpoint: 10.0°C (50°F) [RH = 88%]
Pressure (altimeter): 29.82 inches Hg (1010.0 mb)
Winds: from the N (360 degrees) at 18 MPH (16 knots; 8.2 m/s)
Visibility: 6 or more miles (10+ km)
Ceiling: at least 12,000 feet AGL
Clouds: sky clear below 12,000 feet AGL
Weather: no significant weather observed at this time

 AIRPORT MAP

 RUNWAY INFORMATION
Runway 05 Runway length 3596 ft Runway width 98 ft
Runway elevation 223 ft Runway displaced threshold 0 ft Runway heading 45
Runway 23 Runway length 3596 ft Runway width 98 ft
Runway elevation 232 ft Runway displaced threshold 0 ft Runway heading 225
Runway 14 Runway length 5906 ft Runway width 98 ft
Runway elevation 226 ft Runway displaced threshold 0 ft Runway heading 134
Runway 32 Runway length 5906 ft Runway width 98 ft
Runway elevation 217 ft Runway displaced threshold 0 ft Runway heading 314

 AIRPORT FREQUENCIES
Type CTAF Name CTAF Frequency 126.7 MHZ
Type FSS Name MELBOURNE Frequency 123.9 MHZ

 AIRPORT NEAR NAVIGATION AIDS
Type NDB-DME Name Albany Frequency 240 KHZ



Powered by Virtual Airlines Manager [v2.6.2]